Wetterdaten: aktuell Sonntag, 20.06.2021 15:10
Datum Zeit Temperatur Bodentemp. Luftfeuchte Luftdruck Niederschlag Windgeschw. Windrichtung Windrichtung Sonnenschein Nieder.dauer Evapotrans. Solarstrahl. Taupunkt Windchill Windböen
20.06.2021 15:10 25,5 °C 25,6 °C 59 % 1006,7 hPa 0,0 l/m² 10,8 km/h (2 Bft) SW 225 ° 52 min 0 min 1 mm 879 W/m² 16,9 °C 25,5 °C 21,5 km/h (4 Bft)
20.06.2021 14:10 25,7 °C 28,9 °C 66 % 1006,2 hPa 0,0 l/m² 10,8 km/h (2 Bft) SW 225 ° 34 min 0 min 1 mm 323 W/m² 18,9 °C 25,7 °C 21,5 km/h (4 Bft)
20.06.2021 13:10 24,9 °C 31,1 °C 71 % 1006,0 hPa 0,0 l/m² 10,8 km/h (2 Bft) W 270 ° 23 min 0 min 0 mm 997 W/m² 19,3 °C 24,9 °C 19,7 km/h (3 Bft)
20.06.2021 12:10 22,5 °C 21,7 °C 83 % 1006,0 hPa 0,0 l/m² 12,6 km/h (3 Bft) S-SW 202 ° 7 min 0 min 0 mm 309 W/m² 19,5 °C 22,5 °C 17,9 km/h (3 Bft)
20.06.2021 11:10 21,8 °C 21,1 °C 89 % 1005,5 hPa 0,0 l/m² 12,6 km/h (3 Bft) S-SW 202 ° 45 min 0 min 0 mm 229 W/m² 19,9 °C 21,8 °C 16,1 km/h (3 Bft)
20.06.2021 10:10 21,0 °C 21,1 °C 100 % 1005,5 hPa 0,0 l/m² 7,2 km/h (2 Bft) SO 135 ° 13 min 2 min 0 mm 666 W/m² 21,0 °C 21,0 °C 9,0 km/h (2 Bft)
20.06.2021 09:10 19,1 °C 18,9 °C 100 % 1005,6 hPa 4,0 l/m² 0,0 km/h (0 Bft) O-SO 112 ° 0 min 60 min 0 mm 120 W/m² 19,1 °C 19,1 °C 1,8 km/h (1 Bft)
20.06.2021 08:10 19,3 °C 18,9 °C 100 % 1006,5 hPa 2,6 l/m² 5,4 km/h (1 Bft) S-SO 157 ° 0 min 60 min 0 mm 11 W/m² 19,3 °C 19,3 °C 7,2 km/h (2 Bft)
20.06.2021 07:10 20,1 °C 18,9 °C 94 % 1005,6 hPa 1,0 l/m² 7,2 km/h (2 Bft) S-SO 157 ° 0 min 6 min 0 mm 5 W/m² 19,1 °C 20,1 °C 10,8 km/h (2 Bft)
20.06.2021 06:10 19,3 °C 18,9 °C 92 % 1006,5 hPa 0,0 l/m² 12,6 km/h (3 Bft) O 90 ° 7 min 0 min 0 mm 39 W/m² 18,0 °C 19,3 °C 17,9 km/h (3 Bft)
20.06.2021 05:10 18,2 °C 17,8 °C 98 % 1008,0 hPa 0,0 l/m² 7,2 km/h (2 Bft) O 90 ° 8 min 0 min 0 mm 23 W/m² 17,9 °C 18,2 °C 12,6 km/h (3 Bft)
20.06.2021 04:10 17,7 °C 17,2 °C 98 % 1009,6 hPa 0,0 l/m² 3,6 km/h (1 Bft) O-NO 67 ° 0 min 0 min 0 mm 0 W/m² 17,4 °C 17,7 °C 5,4 km/h (1 Bft)
20.06.2021 03:10 16,9 °C 16,7 °C 98 % 1009,5 hPa 0,0 l/m² 1,8 km/h (1 Bft) O-NO 67 ° 0 min 0 min 0 mm 0 W/m² 16,6 °C 16,9 °C 9,0 km/h (2 Bft)
20.06.2021 02:10 17,9 °C 17,8 °C 94 % 1010,7 hPa 0,0 l/m² 0,0 km/h (0 Bft) O-NO 67 ° 0 min 0 min 0 mm 0 W/m² 16,9 °C 17,9 °C 1,8 km/h (1 Bft)
20.06.2021 01:10 18,4 °C 18,3 °C 91 % 1011,5 hPa 0,0 l/m² 1,8 km/h (1 Bft) NO 45 ° 0 min 0 min 0 mm 0 W/m² 16,9 °C 18,4 °C 7,2 km/h (2 Bft)
20.06.2021 00:10 17,6 °C 17,2 °C 92 % 1011,8 hPa 0,0 l/m² 0,0 km/h (0 Bft) NO 45 ° 0 min 0 min 0 mm 0 W/m² 16,3 °C 17,6 °C 3,6 km/h (1 Bft)
19.06.2021 23:10 18,6 °C 18,3 °C 86 % 1012,3 hPa 0,0 l/m² 1,8 km/h (1 Bft) NO 45 ° 0 min 0 min 0 mm 0 W/m² 16,2 °C 18,6 °C 3,6 km/h (1 Bft)
19.06.2021 22:10 19,5 °C 18,9 °C 82 % 1012,7 hPa 0,0 l/m² 5,4 km/h (1 Bft) N-NW 337 ° 6 min 0 min 0 mm 5 W/m² 16,3 °C 19,5 °C 9,0 km/h (2 Bft)
19.06.2021 21:10 21,8 °C 21,7 °C 77 % 1012,6 hPa 0,0 l/m² 10,8 km/h (2 Bft) NW 315 ° 33 min 0 min 0 mm 28 W/m² 17,6 °C 21,8 °C 16,1 km/h (3 Bft)
19.06.2021 20:10 24,9 °C 26,7 °C 66 % 1011,9 hPa 0,0 l/m² 7,2 km/h (2 Bft) W-NW 292 ° 34 min 0 min 0 mm 113 W/m² 18,1 °C 24,9 °C 10,8 km/h (2 Bft)
19.06.2021 19:10 26,4 °C 26,1 °C 61 % 1011,8 hPa 0,0 l/m² 5,4 km/h (1 Bft) W-NW 292 ° 60 min 0 min 0 mm 260 W/m² 18,3 °C 26,4 °C 9,0 km/h (2 Bft)
19.06.2021 18:10 27,3 °C 27,8 °C 59 % 1011,8 hPa 0,0 l/m² 5,4 km/h (1 Bft) SW 225 ° 58 min 0 min 0 mm 454 W/m² 18,6 °C 27,3 °C 9,0 km/h (2 Bft)
19.06.2021 17:10 27,9 °C 29,4 °C 55 % 1012,1 hPa 0,0 l/m² 9,0 km/h (2 Bft) S 180 ° 60 min 0 min 1 mm 575 W/m² 18,0 °C 27,9 °C 14,4 km/h (3 Bft)
19.06.2021 16:10 28,4 °C 28,9 °C 52 % 1011,8 hPa 0,0 l/m² 10,8 km/h (2 Bft) W-SW 247 ° 10 min 0 min 1 mm 726 W/m² 17,6 °C 28,4 °C 16,1 km/h (3 Bft)
19.06.2021 16:00 28,6 °C 28,9 °C 50 % 1011,8 hPa 0,0 l/m² 10,8 km/h (2 Bft) W-NW 292 ° 0 min 0 min 1 mm 740 W/m² 17,1 °C 28,6 °C 16,1 km/h (3 Bft)
_ Min-Zeit 02:52 02:36 16:29 10:15 - 22:22 - - - - - - 23:36 02:52 23:26
Minimum _ 16,9 °C 16,7 °C 49 % 1005,2 hPa - 0,0 km/h (0 Bft) - - - - - - 16,1 °C 16,9 °C 0,0 km/h (0 Bft)
_ Max-Zeit 16:30 13:58 07:33 21:15 07:07 14:47 - - 16:00 07:05 16:00 13:38 10:51 16:30 14:59
Maximum _ 28,9 °C 33,3 °C 100 % 1012,8 hPa 0,6 l/m² 25,1 km/h
S-SW (4 Bft)
- - 1 min 1 min 1 mm 1065 W/m² 21,6 °C 28,9 °C 46,7 km/h
S-SW (6 Bft)
Durchschnitt _ 22,1 °C 22,3 °C 80 % 1009,3 hPa #7,6 l/m² 7,4 km/h (2 Bft) O - #3:09 h #2:08 h #2,183 mm 319 W/m² 18,0 °C 22,1 °C 12,4 km/h (3 Bft)